Time;durP1;ratioP1;P1;durP2;ratioP2;P2;SDS_P1;SDS_P2;PMS_P1;PMS_P2;Temp;Humidity;BMP_temperature;BMP_pressure;BME280_temperature;BME280_humidity;BME280_pressure;Samples;Min_cycle;Max_cycle;Signal;HPM_P1;HPM_P2
2023/08/03 00:00:36;;;;;;;14.48;2.83;;;;;;;17.79;100.00;98876.59;5025663;28;20035;-69
2023/08/03 00:03:01;;;;;;;15.07;3.30;;;;;;;17.80;100.00;98875.59;5027168;28;20525;-70
2023/08/03 00:05:26;;;;;;;20.23;2.92;;;;;;;17.75;100.00;98885.84;5026636;28;20029;-68
2023/08/03 00:07:52;;;;;;;15.23;3.00;;;;;;;17.84;100.00;98884.09;5027668;28;20034;-66
2023/08/03 00:10:19;;;;;;;15.95;2.33;;;;;;;17.81;100.00;98894.09;5027687;28;20029;-72
2023/08/03 00:12:45;;;;;;;18.70;2.80;;;;;;;17.93;100.00;98888.56;5027331;28;20100;-68
2023/08/03 00:15:12;;;;;;;11.57;2.38;;;;;;;18.02;100.00;98894.81;5025681;28;20087;-67
2023/08/03 00:17:38;;;;;;;17.60;2.90;;;;;;;18.04;100.00;98898.19;5025864;28;20072;-70
2023/08/03 00:20:04;;;;;;;13.13;2.88;;;;;;;18.06;100.00;98912.19;5026660;28;20472;-73
2023/08/03 00:22:31;;;;;;;16.25;2.38;;;;;;;18.10;100.00;98902.97;5026550;28;20482;-68
2023/08/03 00:24:58;;;;;;;11.65;2.33;;;;;;;18.11;100.00;98915.28;5027454;28;20031;-72
2023/08/03 00:27:23;;;;;;;12.18;2.35;;;;;;;17.99;100.00;98911.09;5026870;28;20608;-70
2023/08/03 00:29:49;;;;;;;7.15;1.40;;;;;;;17.90;100.00;98919.00;5027754;28;20033;-72
2023/08/03 00:32:14;;;;;;;8.13;1.60;;;;;;;17.96;100.00;98922.06;5028586;28;20064;-66
2023/08/03 00:34:39;;;;;;;14.82;2.20;;;;;;;17.94;100.00;98927.53;5028727;28;20038;-68
2023/08/03 00:37:05;;;;;;;8.57;1.95;;;;;;;18.01;100.00;98928.63;5028401;28;20028;-70
2023/08/03 00:39:30;;;;;;;8.00;1.60;;;;;;;17.99;100.00;98943.06;5024938;28;20060;-69
2023/08/03 00:41:55;;;;;;;8.48;2.05;;;;;;;17.94;100.00;98941.69;5027597;28;20037;-65
2023/08/03 00:44:21;;;;;;;9.10;1.77;;;;;;;17.92;100.00;98943.69;5025568;28;20041;-70
2023/08/03 00:46:46;;;;;;;10.55;1.85;;;;;;;17.82;100.00;98953.50;5026540;28;20049;-69
2023/08/03 00:49:12;;;;;;;18.95;2.88;;;;;;;17.88;100.00;98955.59;5030653;28;20044;-71
2023/08/03 00:51:37;;;;;;;14.10;2.50;;;;;;;17.86;100.00;98948.75;5030001;28;20033;-67
2023/08/03 00:54:07;;;;;;;13.38;2.17;;;;;;;17.98;100.00;98949.41;5031456;28;20080;-68
2023/08/03 00:56:35;;;;;;;9.60;2.17;;;;;;;17.96;100.00;98959.34;5031026;28;20036;-69
2023/08/03 00:59:01;;;;;;;6.60;2.25;;;;;;;17.93;100.00;98965.81;5031358;28;20044;-67
2023/08/03 01:01:26;;;;;;;6.72;2.33;;;;;;;17.93;100.00;98966.66;5026814;28;20039;-70
2023/08/03 01:03:52;;;;;;;13.15;2.60;;;;;;;17.89;100.00;98970.63;5030957;28;20033;-67
2023/08/03 01:06:17;;;;;;;16.17;2.90;;;;;;;17.82;100.00;98966.84;5030670;28;20572;-66
2023/08/03 01:08:43;;;;;;;16.15;2.70;;;;;;;17.87;100.00;98966.41;5030484;28;20497;-69
2023/08/03 01:11:08;;;;;;;8.70;2.50;;;;;;;17.86;100.00;98973.56;5029953;28;20025;-69
2023/08/03 01:13:33;;;;;;;13.63;2.47;;;;;;;17.91;100.00;98978.47;5029022;28;20164;-68
2023/08/03 01:16:00;;;;;;;15.40;3.78;;;;;;;17.88;100.00;98976.91;5029879;28;20053;-66
2023/08/03 01:18:25;;;;;;;14.75;2.90;;;;;;;17.91;100.00;98979.28;5031024;28;20218;-69
2023/08/03 01:20:51;;;;;;;13.73;3.47;;;;;;;17.92;100.00;98978.31;5030009;28;20492;-66
2023/08/03 01:23:16;;;;;;;11.23;3.22;;;;;;;18.00;100.00;98980.22;5030721;28;20061;-69
2023/08/03 01:25:42;;;;;;;14.00;3.00;;;;;;;17.99;100.00;98980.38;5028586;28;20028;-70
2023/08/03 01:28:07;;;;;;;13.18;3.28;;;;;;;17.89;100.00;98983.09;5030349;28;20036;-71
2023/08/03 01:30:32;;;;;;;9.45;3.03;;;;;;;17.93;100.00;98989.81;5029634;28;20033;-69
2023/08/03 01:32:59;;;;;;;17.05;2.90;;;;;;;17.91;100.00;98997.94;5028650;28;20029;-69
2023/08/03 01:35:24;;;;;;;9.77;2.85;;;;;;;17.96;100.00;98992.19;5030208;28;20474;-73
2023/08/03 01:37:50;;;;;;;13.30;4.03;;;;;;;17.95;100.00;98995.84;5030653;28;20052;-64
2023/08/03 01:40:16;;;;;;;14.80;3.35;;;;;;;17.94;100.00;99000.31;5028382;28;20104;-68
2023/08/03 01:42:42;;;;;;;12.13;3.25;;;;;;;17.91;100.00;98995.28;5030224;28;20107;-70
2023/08/03 01:45:07;;;;;;;16.58;3.47;;;;;;;17.94;100.00;99004.78;5029611;28;20339;-68
2023/08/03 01:47:33;;;;;;;14.43;3.10;;;;;;;17.88;100.00;99000.88;5030402;28;20052;-71
2023/08/03 01:49:58;;;;;;;12.93;3.15;;;;;;;17.90;100.00;99004.25;5030275;28;20147;-68
2023/08/03 01:52:24;;;;;;;11.85;2.92;;;;;;;17.88;100.00;98995.56;5028928;28;20366;-71
2023/08/03 01:54:49;;;;;;;13.20;2.67;;;;;;;17.91;100.00;98999.78;5030732;28;20034;-70
2023/08/03 01:57:17;;;;;;;14.23;2.95;;;;;;;17.90;100.00;98996.28;5030149;28;20103;-68
2023/08/03 01:59:43;;;;;;;8.50;2.47;;;;;;;17.87;100.00;98999.22;5027784;28;20036;-68
2023/08/03 02:02:09;;;;;;;11.25;3.22;;;;;;;17.91;100.00;98999.78;5029341;28;20300;-70
2023/08/03 02:04:34;;;;;;;11.13;3.10;;;;;;;17.87;100.00;99004.53;5029649;28;20028;-70
2023/08/03 02:07:08;;;;;;;11.48;3.00;;;;;;;17.90;100.00;99001.59;5029247;28;20049;-69
2023/08/03 02:09:34;;;;;;;7.68;2.65;;;;;;;17.94;100.00;99002.97;5028318;28;20026;-70
2023/08/03 02:11:59;;;;;;;9.00;2.60;;;;;;;17.92;100.00;99002.31;5029444;28;20029;-69
2023/08/03 02:14:25;;;;;;;13.40;2.92;;;;;;;17.90;100.00;98998.94;5028779;28;20049;-70
2023/08/03 02:16:50;;;;;;;6.43;2.40;;;;;;;17.87;100.00;98999.22;5028990;28;20032;-66
2023/08/03 02:19:15;;;;;;;7.60;2.42;;;;;;;17.84;100.00;98998.66;5029459;28;20112;-68
2023/08/03 02:21:41;;;;;;;9.20;2.55;;;;;;;17.85;100.00;99001.19;5027938;28;20072;-69
2023/08/03 02:24:06;;;;;;;9.70;2.45;;;;;;;17.75;100.00;98995.88;5029175;28;20433;-68
2023/08/03 02:26:31;;;;;;;10.70;2.60;;;;;;;17.77;100.00;99009.06;5027451;28;20513;-69
2023/08/03 02:28:57;;;;;;;13.02;3.10;;;;;;;17.70;100.00;99008.78;5028942;28;20029;-66
2023/08/03 02:31:22;;;;;;;7.20;2.50;;;;;;;17.74;100.00;99009.34;5028828;28;20025;-66
2023/08/03 02:33:47;;;;;;;7.05;2.70;;;;;;;17.71;100.00;99002.50;5029523;28;20430;-69
2023/08/03 02:36:13;;;;;;;11.00;2.58;;;;;;;17.77;100.00;99004.59;5029412;28;20083;-68
2023/08/03 02:38:38;;;;;;;10.35;2.60;;;;;;;17.72;100.00;99009.50;5028959;28;20398;-66
2023/08/03 02:41:03;;;;;;;6.80;2.17;;;;;;;17.78;100.00;99000.94;5029343;28;20032;-68
2023/08/03 02:43:29;;;;;;;5.90;2.30;;;;;;;17.80;100.00;99014.94;5029221;28;20048;-68
2023/08/03 02:45:54;;;;;;;5.03;2.33;;;;;;;17.77;100.00;99030.38;5027559;28;20029;-68
2023/08/03 02:48:20;;;;;;;8.25;2.42;;;;;;;17.77;100.00;99023.22;5029335;28;20037;-66
2023/08/03 02:50:45;;;;;;;5.55;2.05;;;;;;;17.75;100.00;99030.50;5028593;28;20542;-66
2023/08/03 02:53:10;;;;;;;6.53;2.40;;;;;;;17.75;100.00;99032.31;5028773;28;20037;-66
2023/08/03 02:55:36;;;;;;;7.18;2.10;;;;;;;17.59;100.00;99032.91;5028625;28;20079;-66
2023/08/03 02:58:01;;;;;;;6.95;2.08;;;;;;;17.63;100.00;99032.50;5028525;28;20104;-65
2023/08/03 03:00:26;;;;;;;3.97;1.60;;;;;;;17.68;100.00;99037.41;5028090;28;20022;-66
2023/08/03 03:02:52;;;;;;;5.68;2.00;;;;;;;17.66;100.00;99039.34;5029337;28;20029;-66
2023/08/03 03:05:17;;;;;;;10.43;1.80;;;;;;;17.67;100.00;99046.38;5029160;28;20053;-66
2023/08/03 03:07:42;;;;;;;3.25;1.90;;;;;;;17.64;100.00;99047.47;5028488;28;20128;-65
2023/08/03 03:10:09;;;;;;;4.38;2.15;;;;;;;17.65;100.00;99049.19;5027173;28;20394;-68
2023/08/03 03:12:35;;;;;;;12.73;1.90;;;;;;;17.64;100.00;99058.13;5027790;28;20034;-67
2023/08/03 03:15:00;;;;;;;5.50;1.88;;;;;;;17.71;100.00;99049.59;5028020;28;20045;-67
2023/08/03 03:17:25;;;;;;;5.32;1.90;;;;;;;17.74;100.00;99067.94;5028190;28;20063;-67
2023/08/03 03:19:51;;;;;;;3.95;2.08;;;;;;;17.67;100.00;99067.69;5028937;28;20467;-67
2023/08/03 03:22:16;;;;;;;7.25;1.92;;;;;;;17.64;100.00;99068.78;5028796;28;20029;-66
2023/08/03 03:24:41;;;;;;;6.90;2.30;;;;;;;17.60;100.00;99079.84;5028403;28;20104;-66
2023/08/03 03:27:07;;;;;;;11.98;2.42;;;;;;;17.66;100.00;99074.81;5027310;28;20033;-68
2023/08/03 03:29:32;;;;;;;12.60;2.22;;;;;;;17.62;100.00;99073.44;5027455;28;20373;-67
2023/08/03 03:31:57;;;;;;;11.15;1.77;;;;;;;17.61;100.00;99094.88;5027089;28;20079;-66
2023/08/03 03:34:23;;;;;;;6.63;1.77;;;;;;;17.57;100.00;99091.66;5027107;28;20029;-68
2023/08/03 03:36:48;;;;;;;4.55;1.77;;;;;;;17.57;100.00;99098.81;5028118;28;20025;-66
2023/08/03 03:39:13;;;;;;;8.15;1.60;;;;;;;17.60;100.00;99099.34;5027695;28;20544;-68
2023/08/03 03:41:39;;;;;;;9.95;2.35;;;;;;;17.55;100.00;99101.63;5027653;28;20450;-65
2023/08/03 03:44:05;;;;;;;14.52;2.13;;;;;;;17.54;100.00;99097.25;5025016;28;20025;-67
2023/08/03 03:46:30;;;;;;;12.18;2.20;;;;;;;17.51;100.00;99105.50;5028042;28;20036;-67
2023/08/03 03:48:55;;;;;;;14.77;2.20;;;;;;;17.57;100.00;99104.13;5027115;28;20080;-64
2023/08/03 03:51:21;;;;;;;6.53;1.42;;;;;;;17.56;100.00;99103.28;5028093;28;20057;-67
2023/08/03 03:53:47;;;;;;;13.80;1.90;;;;;;;17.61;100.00;99108.19;5027271;28;20087;-66
2023/08/03 03:56:12;;;;;;;8.52;1.65;;;;;;;17.58;100.00;99111.94;5027029;28;20018;-69
2023/08/03 03:58:37;;;;;;;7.07;1.80;;;;;;;17.63;100.00;99115.06;5026908;28;20064;-66
2023/08/03 04:01:03;;;;;;;8.43;1.67;;;;;;;17.69;100.00;99121.63;5027318;28;20438;-65
2023/08/03 04:03:28;;;;;;;9.48;1.90;;;;;;;17.65;100.00;99126.41;5027509;28;20025;-68
2023/08/03 04:05:53;;;;;;;11.70;2.20;;;;;;;17.71;100.00;99122.34;5027619;28;20374;-68
2023/08/03 04:08:19;;;;;;;11.13;2.20;;;;;;;17.70;100.00;99128.63;5028295;28;20048;-67
2023/08/03 04:10:44;;;;;;;11.75;2.00;;;;;;;17.68;100.00;99136.78;5023662;28;20445;-67
2023/08/03 04:13:10;;;;;;;13.90;1.98;;;;;;;17.55;100.00;99136.22;5026280;28;20108;-67
2023/08/03 04:15:35;;;;;;;11.98;2.58;;;;;;;17.59;100.00;99144.75;5024044;28;20120;-65
2023/08/03 04:18:00;;;;;;;13.45;2.55;;;;;;;17.62;100.00;99140.00;5026138;28;20050;-67
2023/08/03 04:20:26;;;;;;;10.43;2.30;;;;;;;17.67;100.00;99147.59;5025140;28;20040;-66
2023/08/03 04:22:51;;;;;;;21.00;3.65;;;;;;;17.60;100.00;99152.63;5026873;28;20040;-67
2023/08/03 04:25:16;;;;;;;13.98;2.92;;;;;;;17.65;100.00;99149.53;5023748;28;20049;-67
2023/08/03 04:27:42;;;;;;;21.65;3.58;;;;;;;17.60;100.00;99159.75;5030085;28;20033;-65
2023/08/03 04:30:10;;;;;;;16.90;3.13;;;;;;;17.59;100.00;99174.91;5029567;28;20111;-65
2023/08/03 04:32:35;;;;;;;19.42;3.75;;;;;;;17.56;100.00;99172.53;5029554;28;20100;-66
2023/08/03 04:35:00;;;;;;;23.35;3.80;;;;;;;17.65;100.00;99169.03;5029673;28;20025;-66
2023/08/03 04:37:26;;;;;;;23.02;4.10;;;;;;;17.55;100.00;99184.16;5031570;28;20029;-67
2023/08/03 04:39:51;;;;;;;20.75;3.95;;;;;;;17.63;100.00;99183.44;5028882;28;20398;-64
2023/08/03 04:42:16;;;;;;;26.02;4.18;;;;;;;17.46;100.00;99184.97;5030397;28;20030;-65
2023/08/03 04:44:42;;;;;;;19.40;3.90;;;;;;;17.55;100.00;99186.81;5029515;28;20064;-68
2023/08/03 04:47:07;;;;;;;16.73;4.28;;;;;;;17.62;100.00;99193.28;5029365;28;20499;-67
2023/08/03 04:49:32;;;;;;;19.45;3.70;;;;;;;17.57;100.00;99198.16;5029390;28;20025;-64
2023/08/03 04:51:58;;;;;;;22.75;3.58;;;;;;;17.53;100.00;99204.75;5030623;28;20132;-66
2023/08/03 04:54:23;;;;;;;16.60;2.70;;;;;;;17.43;100.00;99202.91;5029635;28;20038;-66
2023/08/03 04:56:49;;;;;;;14.07;3.10;;;;;;;17.43;100.00;99202.91;5032437;28;20326;-66
2023/08/03 04:59:14;;;;;;;13.98;3.10;;;;;;;17.48;100.00;99209.63;5030951;28;20026;-68
2023/08/03 05:01:39;;;;;;;15.13;2.33;;;;;;;17.41;100.00;99212.00;5030881;28;20366;-66
2023/08/03 05:04:05;;;;;;;12.30;2.72;;;;;;;17.39;100.00;99209.47;5029167;28;20477;-67
2023/08/03 05:06:30;;;;;;;14.45;2.80;;;;;;;17.29;100.00;99208.63;5029280;28;20391;-67
2023/08/03 05:08:56;;;;;;;13.55;2.88;;;;;;;17.37;100.00;99215.94;5029802;28;20098;-66
2023/08/03 05:11:21;;;;;;;13.98;2.97;;;;;;;17.39;100.00;99213.94;5029485;28;20113;-65
2023/08/03 05:13:46;;;;;;;15.63;3.30;;;;;;;17.43;100.00;99216.22;5029038;28;20029;-69
2023/08/03 05:16:12;;;;;;;21.85;3.40;;;;;;;17.51;100.00;99222.66;5030333;28;20477;-67
2023/08/03 05:18:37;;;;;;;13.27;2.53;;;;;;;17.43;100.00;99213.53;5028768;28;20041;-66
2023/08/03 05:21:03;;;;;;;20.42;3.50;;;;;;;17.45;100.00;99220.56;5031314;28;20084;-66
2023/08/03 05:23:28;;;;;;;15.73;3.05;;;;;;;17.44;100.00;99217.06;5017507;28;20028;-66
2023/08/03 05:25:54;;;;;;;14.57;3.10;;;;;;;17.43;100.00;99226.84;5031514;28;20021;-69
2023/08/03 05:28:20;;;;;;;13.77;2.95;;;;;;;17.48;100.00;99217.63;5029663;28;20018;-65
2023/08/03 05:30:46;;;;;;;17.55;2.67;;;;;;;17.60;100.00;99227.19;5028103;28;20040;-67
2023/08/03 05:33:11;;;;;;;12.95;2.70;;;;;;;17.55;100.00;99240.91;5028503;28;20032;-64
2023/08/03 05:35:37;;;;;;;15.65;3.22;;;;;;;17.54;100.00;99228.56;5027362;28;20128;-66
2023/08/03 05:38:02;;;;;;;9.27;2.95;;;;;;;17.64;100.00;99225.09;5029591;28;20100;-67
2023/08/03 05:40:27;;;;;;;20.00;2.80;;;;;;;17.57;100.00;99232.78;5025955;28;20025;-66
2023/08/03 05:42:53;;;;;;;13.25;2.45;;;;;;;17.52;100.00;99230.53;5020522;28;20017;-66
2023/08/03 05:45:48;;;;;;;15.40;3.30;;;;;;;17.56;100.00;99225.78;5028441;28;20114;-68
2023/08/03 05:48:13;;;;;;;16.63;2.90;;;;;;;17.51;100.00;99242.16;5027451;28;20044;-69
2023/08/03 05:50:50;;;;;;;14.23;3.03;;;;;;;17.45;100.00;99233.88;5028288;28;20409;-67
2023/08/03 05:53:16;;;;;;;14.82;2.47;;;;;;;17.42;100.00;99241.16;5029359;28;20498;-67
2023/08/03 05:55:42;;;;;;;16.98;3.20;;;;;;;17.41;100.00;99241.28;5028182;28;20053;-68
2023/08/03 05:58:13;;;;;;;18.05;3.05;;;;;;;17.55;100.00;99248.06;5028919;28;20025;-66
2023/08/03 06:00:42;;;;;;;17.85;2.95;;;;;;;17.63;100.00;99240.22;5028419;28;20458;-66
2023/08/03 06:03:12;;;;;;;12.13;2.88;;;;;;;17.63;100.00;99240.22;5028400;28;20104;-67
2023/08/03 06:05:37;;;;;;;23.58;3.47;;;;;;;17.75;100.00;99240.09;5028342;28;20544;-68
2023/08/03 06:08:18;;;;;;;20.90;3.75;;;;;;;17.88;100.00;99248.66;5028958;28;20025;-67
2023/08/03 06:10:54;;;;;;;19.00;3.55;;;;;;;17.83;100.00;99247.41;5026359;28;20021;-66
2023/08/03 06:13:24;;;;;;;15.82;3.08;;;;;;;17.82;100.00;99259.88;5028147;28;20474;-66
2023/08/03 06:15:49;;;;;;;17.08;3.38;;;;;;;17.75;100.00;99256.06;5027741;28;20033;-65
2023/08/03 06:18:17;;;;;;;16.98;3.42;;;;;;;17.81;100.00;99259.03;5027042;28;20450;-65
2023/08/03 06:20:44;;;;;;;26.23;3.65;;;;;;;17.81;100.00;99274.16;5028151;28;20025;-66
2023/08/03 06:23:16;;;;;;;18.85;3.33;;;;;;;17.80;100.00;99260.03;5028295;28;20021;-68
2023/08/03 06:25:42;;;;;;;17.55;3.65;;;;;;;17.80;100.00;99278.69;5028288;28;20549;-68
2023/08/03 06:28:09;;;;;;;14.88;3.10;;;;;;;17.90;100.00;99286.69;5024673;28;20025;-65
2023/08/03 06:30:35;;;;;;;17.38;3.67;;;;;;;17.87;100.00;99284.28;5028398;28;20114;-66
2023/08/03 06:33:00;;;;;;;11.82;2.53;;;;;;;17.88;100.00;99315.25;5026008;28;20148;-67
2023/08/03 06:35:37;;;;;;;15.50;3.50;;;;;;;17.96;100.00;99311.91;5028074;28;20432;-67
2023/08/03 06:38:04;;;;;;;19.65;3.03;;;;;;;17.99;100.00;99316.13;5026708;28;20026;-67
2023/08/03 06:40:29;;;;;;;16.30;3.08;;;;;;;17.96;100.00;99311.91;5028201;28;20036;-66
2023/08/03 06:42:54;;;;;;;17.58;4.30;;;;;;;17.98;100.00;99335.75;5028148;28;20021;-68
2023/08/03 06:45:20;;;;;;;18.75;2.95;;;;;;;17.85;100.00;99347.50;5026570;28;20471;-71
2023/08/03 06:47:45;;;;;;;18.33;3.25;;;;;;;17.91;100.00;99346.97;5028288;28;20033;-65
2023/08/03 06:50:11;;;;;;;16.45;3.58;;;;;;;17.88;100.00;99355.22;5028329;28;20021;-68
2023/08/03 06:52:36;;;;;;;12.57;2.88;;;;;;;18.00;100.00;99349.81;5027600;28;20037;-69
2023/08/03 06:55:02;;;;;;;15.15;2.97;;;;;;;18.19;100.00;99370.34;5029468;28;20022;-68
2023/08/03 06:57:27;;;;;;;22.45;3.53;;;;;;;18.31;100.00;99376.41;5028775;28;20026;-66
2023/08/03 06:59:55;;;;;;;17.10;3.90;;;;;;;18.32;100.00;99378.06;5025556;28;20029;-67
2023/08/03 07:02:21;;;;;;;15.35;2.95;;;;;;;18.36;100.00;99376.81;5028766;28;20029;-70
2023/08/03 07:04:46;;;;;;;13.02;2.92;;;;;;;18.34;100.00;99393.94;5027767;28;20095;-68
2023/08/03 07:07:14;;;;;;;14.85;3.00;;;;;;;18.38;100.00;99412.19;5028702;28;20987;-68
2023/08/03 07:09:39;;;;;;;10.45;2.72;;;;;;;18.47;100.00;99423.84;5028123;28;20029;-66
2023/08/03 07:12:09;;;;;;;15.70;3.17;;;;;;;18.53;100.00;99422.44;5028720;28;20086;-70
2023/08/03 07:14:34;;;;;;;14.80;2.28;;;;;;;18.58;100.00;99435.38;5027526;28;20045;-66
2023/08/03 07:17:00;;;;;;;12.85;2.38;;;;;;;18.61;100.00;99435.94;5027141;28;20394;-68
2023/08/03 07:19:25;;;;;;;14.80;2.78;;;;;;;18.70;100.00;99447.59;5026518;28;20417;-67
2023/08/03 07:21:50;;;;;;;15.50;2.67;;;;;;;18.74;100.00;99461.50;5028147;28;20024;-70
2023/08/03 07:24:16;;;;;;;12.05;2.35;;;;;;;18.91;100.00;99455.47;5026733;28;20083;-68
2023/08/03 07:26:41;;;;;;;10.60;2.20;;;;;;;19.07;100.00;99467.41;5025693;28;20389;-66
2023/08/03 07:29:06;;;;;;;10.73;2.20;;;;;;;19.25;100.00;99480.91;5026740;28;20470;-67
2023/08/03 07:31:32;;;;;;;7.75;1.77;;;;;;;19.41;100.00;99480.34;5027473;28;20381;-71
2023/08/03 07:33:57;;;;;;;8.48;2.13;;;;;;;19.51;100.00;99491.00;5027592;28;20033;-70
2023/08/03 07:36:22;;;;;;;6.80;1.65;;;;;;;19.62;100.00;99502.53;5028289;28;20049;-66
2023/08/03 07:38:48;;;;;;;6.68;1.77;;;;;;;19.68;100.00;99505.44;5026542;28;20114;-68
2023/08/03 07:41:13;;;;;;;9.45;2.33;;;;;;;19.39;100.00;99519.69;5028315;28;20022;-68
2023/08/03 07:43:38;;;;;;;6.32;1.60;;;;;;;19.50;100.00;99523.22;5026889;28;20485;-67
2023/08/03 07:46:04;;;;;;;12.50;1.80;;;;;;;19.38;100.00;99526.00;5027967;28;20030;-67
2023/08/03 07:48:29;;;;;;;10.82;2.20;;;;;;;19.42;100.00;99535.44;5025669;28;20087;-65
2023/08/03 07:50:55;;;;;;;6.75;1.60;;;;;;;19.50;100.00;99549.94;5027922;28;20033;-68
2023/08/03 07:53:20;;;;;;;8.30;1.67;;;;;;;19.33;100.00;99555.00;5028017;28;20029;-68
2023/08/03 07:55:46;;;;;;;12.15;2.25;;;;;;;19.35;100.00;99568.19;5025084;28;20041;-65
2023/08/03 07:58:12;;;;;;;7.45;1.65;;;;;;;19.35;100.00;99579.72;5027303;28;20032;-67
2023/08/03 08:00:37;;;;;;;8.30;2.28;;;;;;;19.27;100.00;99587.59;5026488;28;20044;-67
2023/08/03 08:03:03;;;;;;;8.35;2.13;;;;;;;19.30;100.00;99587.31;5027207;28;20044;-66
2023/08/03 08:05:28;;;;;;;8.98;2.22;;;;;;;19.36;100.00;99597.44;5027455;28;20033;-68
2023/08/03 08:07:54;;;;;;;6.32;1.67;;;;;;;19.39;100.00;99596.31;5025020;28;20036;-68
2023/08/03 08:10:19;;;;;;;11.30;1.80;;;;;;;19.38;100.00;99606.13;5027785;28;20075;-69
2023/08/03 08:12:45;;;;;;;9.00;2.13;;;;;;;19.59;100.00;99607.81;5025374;28;20022;-67
2023/08/03 08:15:10;;;;;;;8.93;1.67;;;;;;;19.97;100.00;99615.09;5025928;28;20178;-66
2023/08/03 08:17:36;;;;;;;8.57;1.92;;;;;;;20.21;100.00;99636.06;5026868;28;20059;-68
2023/08/03 08:20:01;;;;;;;7.18;2.15;;;;;;;20.13;100.00;99639.44;5026919;28;20030;-66
2023/08/03 08:22:26;;;;;;;7.28;2.03;;;;;;;20.33;100.00;99639.41;5026722;28;20039;-66
2023/08/03 08:24:52;;;;;;;6.05;1.70;;;;;;;20.38;100.00;99645.13;5027873;28;20374;-66
2023/08/03 08:27:17;;;;;;;6.97;1.42;;;;;;;20.53;100.00;99650.88;5019943;28;20032;-66
2023/08/03 08:29:46;;;;;;;7.55;1.90;;;;;;;20.73;100.00;99657.97;5009783;28;20030;-67
2023/08/03 08:32:11;;;;;;;;;;;;;;;20.70;100.00;99657.28;5007482;28;20092;-67
2023/08/03 08:34:37;;;;;;;4.67;1.60;;;;;;;20.85;100.00;99667.50;5007387;28;19917;-67
2023/08/03 08:37:02;;;;;;;5.57;1.80;;;;;;;21.04;100.00;99673.81;5014066;28;20284;-68
2023/08/03 08:39:29;;;;;;;9.85;1.73;;;;;;;21.18;100.00;99675.97;5026472;28;20576;-65
2023/08/03 08:41:55;;;;;;;6.60;1.67;;;;;;;21.29;100.00;99674.06;5026059;28;20018;-67
2023/08/03 08:44:20;;;;;;;9.98;2.17;;;;;;;21.52;100.00;99681.69;5026801;28;20524;-66
2023/08/03 08:46:46;;;;;;;9.68;1.80;;;;;;;21.82;100.00;99680.47;5026214;28;20092;-66
2023/08/03 08:49:12;;;;;;;10.82;1.70;;;;;;;22.26;100.00;99680.63;5026340;28;20025;-64
2023/08/03 08:51:37;;;;;;;4.85;1.75;;;;;;;22.25;100.00;99684.31;5026545;28;20025;-66
2023/08/03 08:54:03;;;;;;;5.97;1.30;;;;;;;22.20;100.00;99696.38;5025566;28;20401;-68
2023/08/03 08:56:28;;;;;;;9.93;2.00;;;;;;;22.08;100.00;99694.94;5025856;28;20501;-67
2023/08/03 08:58:53;;;;;;;11.05;1.70;;;;;;;22.00;100.00;99709.09;5016425;28;20065;-63
2023/08/03 09:01:19;;;;;;;11.23;1.55;;;;;;;21.83;100.00;99708.13;5008607;28;20038;-65
2023/08/03 09:03:46;;;;;;;9.10;1.95;;;;;;;21.55;100.00;99711.69;4988651;28;20089;-64
2023/08/03 09:06:12;;;;;;;6.88;1.83;;;;;;;21.51;100.00;99720.16;5020206;28;20086;-63
2023/08/03 09:08:56;;;;;;;11.85;2.33;;;;;;;21.34;100.00;99730.69;5014313;28;20021;-64
2023/08/03 09:11:38;;;;;;;7.82;1.58;;;;;;;21.11;100.00;99731.13;5026874;28;20047;-65
2023/08/03 09:14:06;;;;;;;4.88;1.30;;;;;;;21.30;100.00;99742.72;5009871;28;20445;-65
2023/08/03 09:16:32;;;;;;;11.77;2.13;;;;;;;21.48;100.00;99749.94;5015734;28;20083;-64
2023/08/03 09:18:57;;;;;;;6.45;2.00;;;;;;;21.48;100.00;99745.44;5024541;28;20026;-66
2023/08/03 09:21:22;;;;;;;12.50;2.45;;;;;;;21.46;100.00;99753.63;5011117;28;20030;-64
2023/08/03 09:23:48;;;;;;;10.90;2.15;;;;;;;21.28;100.00;99779.53;5014943;28;20022;-64
2023/08/03 09:26:14;;;;;;;7.28;2.70;;;;;;;20.99;100.00;99753.72;5011784;28;20064;-64
2023/08/03 09:28:40;;;;;;;15.50;3.05;;;;;;;20.73;100.00;99757.84;5011909;28;20048;-64
2023/08/03 09:31:07;;;;;;;11.35;2.70;;;;;;;20.68;100.00;99773.53;5021926;28;20359;-64
2023/08/03 09:33:33;;;;;;;10.27;2.00;;;;;;;20.65;100.00;99782.66;5017172;28;20034;-63
2023/08/03 09:36:08;;;;;;;11.98;2.10;;;;;;;20.28;100.00;99794.09;5013149;28;20733;-64
2023/08/03 09:38:34;;;;;;;8.32;2.10;;;;;;;20.12;100.00;99800.88;5021686;28;20017;-62
2023/08/03 09:40:59;;;;;;;7.10;2.15;;;;;;;19.43;100.00;99809.59;5022963;28;20094;-64
2023/08/03 09:43:26;;;;;;;8.57;2.05;;;;;;;19.51;100.00;99819.56;5019006;28;20097;-64
2023/08/03 09:45:53;;;;;;;9.35;2.20;;;;;;;19.63;100.00;99814.13;5019719;28;20555;-65
2023/08/03 09:48:19;;;;;;;6.88;1.83;;;;;;;19.78;100.00;99825.28;5023571;28;20029;-64
2023/08/03 09:50:50;;;;;;;8.27;1.42;;;;;;;19.78;100.00;99831.47;5018549;28;20029;-65
2023/08/03 09:53:19;;;;;;;9.55;1.60;;;;;;;19.90;100.00;99853.56;5015006;28;20026;-64
2023/08/03 09:55:47;;;;;;;;;;;;;;;20.20;100.00;99851.81;5016352;28;20049;-64
2023/08/03 09:58:15;;;;;;;7.90;1.70;;;;;;;20.16;100.00;99871.81;5016462;28;20290;-66
2023/08/03 10:00:44;;;;;;;;;;;;;;;20.04;100.00;99868.41;5016120;28;20470;-63
2023/08/03 10:03:12;;;;;;;9.38;1.60;;;;;;;20.30;100.00;99867.03;5020154;28;19940;-64
2023/08/03 10:06:03;;;;;;;10.13;2.20;;;;;;;20.75;100.00;99870.13;5026327;28;20040;-64
2023/08/03 10:08:54;;;;;;;6.63;1.40;;;;;;;20.93;100.00;99875.63;5021733;28;20101;-66
2023/08/03 10:11:20;;;;;;;5.95;1.92;;;;;;;21.27;100.00;99890.34;5021546;28;20406;-66
2023/08/03 10:13:47;;;;;;;6.35;1.70;;;;;;;21.48;100.00;99891.97;5025303;28;20434;-66
2023/08/03 10:16:16;;;;;;;6.95;1.90;;;;;;;21.59;100.00;99905.22;5017176;28;20028;-67
2023/08/03 10:18:42;;;;;;;11.38;1.67;;;;;;;21.69;100.00;99895.28;5015010;28;20113;-66
2023/08/03 10:21:08;;;;;;;9.25;1.88;;;;;;;21.26;100.00;99908.28;5016682;28;20104;-67
2023/08/03 10:23:38;;;;;;;4.63;1.35;;;;;;;20.60;100.00;99933.94;5016892;28;20026;-66
2023/08/03 10:26:04;;;;;;;6.70;1.48;;;;;;;19.78;100.00;99937.53;5018232;28;20478;-65
2023/08/03 10:28:38;;;;;;;8.20;1.60;;;;;;;19.73;100.00;99939.75;5016831;28;20041;-70
2023/08/03 10:31:14;;;;;;;5.93;1.70;;;;;;;19.74;100.00;99958.31;5014806;28;20071;-66
2023/08/03 10:33:51;;;;;;;6.10;1.67;;;;;;;19.45;100.00;99959.88;5025233;28;20034;-65
2023/08/03 10:36:38;;;;;;;5.57;1.50;;;;;;;19.35;100.00;99968.81;5020059;28;20028;-68
2023/08/03 10:39:14;;;;;;;5.60;1.90;;;;;;;19.21;100.00;99980.66;5020957;28;20021;-66
2023/08/03 10:41:41;;;;;;;8.40;1.85;;;;;;;18.97;100.00;99993.25;5017317;28;20038;-66
2023/08/03 10:44:07;;;;;;;4.65;1.52;;;;;;;18.72;100.00;99999.75;5019176;28;20097;-72
2023/08/03 10:46:53;;;;;;;8.35;1.42;;;;;;;18.36;100.00;100003.47;5017539;28;20045;-67
2023/08/03 10:49:18;;;;;;;3.97;1.20;;;;;;;18.12;100.00;100006.28;5019578;28;20025;-66
2023/08/03 10:51:48;;;;;;;4.88;1.40;;;;;;;18.00;100.00;100038.22;5017603;28;20509;-65
2023/08/03 10:54:14;;;;;;;3.83;1.42;;;;;;;17.98;100.00;100028.66;5021433;28;20108;-65
2023/08/03 10:57:01;;;;;;;4.07;1.70;;;;;;;17.92;100.00;100036.19;5012987;28;20112;-64
2023/08/03 10:59:26;;;;;;;5.78;1.85;;;;;;;17.89;100.00;100035.56;5017762;28;20238;-68
2023/08/03 11:01:51;;;;;;;4.68;1.60;;;;;;;18.04;100.00;100038.84;5011662;28;20471;-67
2023/08/03 11:04:17;;;;;;;8.75;1.88;;;;;;;18.12;100.00;100039.09;5008250;28;20022;-68
2023/08/03 11:06:42;;;;;;;11.32;2.00;;;;;;;18.30;100.00;100050.13;5008879;28;20629;-67
2023/08/03 11:09:09;;;;;;;9.50;1.90;;;;;;;18.57;100.00;100053.38;5008844;28;20033;-68
2023/08/03 11:11:34;;;;;;;11.75;2.75;;;;;;;18.73;100.00;100054.81;5006367;28;20022;-69
2023/08/03 11:13:59;;;;;;;10.30;2.33;;;;;;;19.08;100.00;100063.63;5026357;28;20583;-68
2023/08/03 11:16:25;;;;;;;15.60;2.97;;;;;;;19.11;100.00;100076.72;5030195;28;20075;-67
2023/08/03 11:18:51;;;;;;;11.45;2.55;;;;;;;19.37;100.00;100076.34;5029329;28;20543;-65